createdAt,value
2017-08-24T00:00:25.122Z,100612.59
2017-08-24T00:02:51.615Z,100615.38
2017-08-24T00:05:18.055Z,100613.53
2017-08-24T00:07:44.490Z,100612.83
2017-08-24T00:10:10.909Z,100619.05
2017-08-24T00:12:37.374Z,100625.59
2017-08-24T00:15:03.796Z,100622.70
2017-08-24T00:17:30.214Z,100617.41
2017-08-24T00:19:56.635Z,100624.77
2017-08-24T00:22:23.065Z,100622.24
2017-08-24T00:24:49.484Z,100626.09
2017-08-24T00:27:15.928Z,100625.92
2017-08-24T00:29:42.366Z,100620.83
2017-08-24T00:32:08.755Z,100631.91
2017-08-24T00:34:35.153Z,100631.21
2017-08-24T00:37:01.620Z,100631.91
2017-08-24T00:39:28.096Z,100625.14
2017-08-24T00:41:54.510Z,100631.18
2017-08-24T00:44:20.904Z,100635.98
2017-08-24T00:46:47.302Z,100635.62
2017-08-24T00:49:13.749Z,100633.02
2017-08-24T00:51:40.197Z,100632.50
2017-08-24T00:54:06.651Z,100626.38
2017-08-24T00:56:33.133Z,100617.55
2017-08-24T00:58:59.546Z,100623.16
2017-08-24T01:01:26.008Z,100624.25
2017-08-24T01:03:52.453Z,100626.84
2017-08-24T01:06:18.824Z,100625.53
2017-08-24T01:08:45.206Z,100623.75
2017-08-24T01:11:11.614Z,100619.16
2017-08-24T01:13:38.040Z,100621.98
2017-08-24T01:16:04.435Z,100623.09
2017-08-24T01:18:30.840Z,100622.84
2017-08-24T01:20:57.264Z,100622.84
2017-08-24T01:23:23.928Z,100624.19
2017-08-24T01:25:50.410Z,100616.59
2017-08-24T01:28:16.854Z,100623.39
2017-08-24T01:30:43.233Z,100620.64
2017-08-24T01:33:09.617Z,100619.09
2017-08-24T01:35:35.998Z,100622.50
2017-08-24T01:38:02.425Z,100624.15
2017-08-24T01:40:28.800Z,100623.84
2017-08-24T01:42:55.149Z,100623.88
2017-08-24T01:45:21.522Z,100623.45
2017-08-24T01:47:47.927Z,100626.02
2017-08-24T01:50:14.321Z,100630.37
2017-08-24T01:52:40.766Z,100630.69
2017-08-24T01:55:07.171Z,100626.85
2017-08-24T01:57:33.542Z,100629.36
2017-08-24T01:59:59.937Z,100623.45
2017-08-24T02:02:26.344Z,100624.46
2017-08-24T02:04:52.785Z,100620.73
2017-08-24T02:07:19.181Z,100624.75
2017-08-24T02:09:45.561Z,100623.71
2017-08-24T02:12:11.933Z,100621.71
2017-08-24T02:14:38.370Z,100619.51
2017-08-24T02:17:04.828Z,100623.32
2017-08-24T02:19:31.232Z,100630.58
2017-08-24T02:21:57.624Z,100624.77
2017-08-24T02:24:24.014Z,100621.34
2017-08-24T02:26:50.403Z,100620.48
2017-08-24T02:29:16.767Z,100619.55
2017-08-24T02:31:43.120Z,100622.59
2017-08-24T02:34:09.484Z,100617.08
2017-08-24T02:36:35.874Z,100610.58
2017-08-24T02:39:02.317Z,100617.14
2017-08-24T02:41:28.705Z,100619.87
2017-08-24T02:43:55.098Z,100620.27
2017-08-24T02:46:21.498Z,100619.57
2017-08-24T02:48:47.913Z,100616.39
2017-08-24T02:51:14.303Z,100616.55
2017-08-24T02:53:40.711Z,100617.88
2017-08-24T02:56:07.127Z,100620.13
2017-08-24T02:58:33.540Z,100630.36
2017-08-24T03:00:59.925Z,100627.42
2017-08-24T03:03:26.344Z,100626.32
2017-08-24T03:05:52.755Z,100631.97
2017-08-24T03:08:19.141Z,100632.55
2017-08-24T03:10:45.547Z,100636.39
2017-08-24T03:13:11.971Z,100636.38
2017-08-24T03:15:38.363Z,100641.11
2017-08-24T03:18:04.761Z,100649.19
2017-08-24T03:20:31.165Z,100655.89
2017-08-24T03:22:57.572Z,100658.19
2017-08-24T03:25:24.002Z,100661.04
2017-08-24T03:27:50.409Z,100665.77
2017-08-24T03:30:16.793Z,100674.45
2017-08-24T03:32:44.089Z,100669.83
2017-08-24T03:35:10.470Z,100673.09
2017-08-24T03:37:37.096Z,100673.97
2017-08-24T03:40:03.497Z,100675.44
2017-08-24T03:42:29.884Z,100679.30
2017-08-24T03:44:56.254Z,100682.63
2017-08-24T03:47:22.663Z,100685.84
2017-08-24T03:49:49.032Z,100687.91
2017-08-24T03:52:15.413Z,100682.58
2017-08-24T03:54:41.809Z,100688.11
2017-08-24T03:57:08.209Z,100687.61
2017-08-24T03:59:34.597Z,100690.74
2017-08-24T04:02:01.043Z,100698.30
2017-08-24T04:04:27.448Z,100695.71
2017-08-24T04:06:54.047Z,100703.03
2017-08-24T04:09:20.423Z,100700.05
2017-08-24T04:11:46.807Z,100701.67
2017-08-24T04:14:13.206Z,100703.23
2017-08-24T04:16:39.605Z,100702.40
2017-08-24T04:19:06.025Z,100701.75
2017-08-24T04:21:32.413Z,100703.07
2017-08-24T04:23:58.794Z,100707.13
2017-08-24T04:26:25.205Z,100701.69
2017-08-24T04:28:51.574Z,100710.70
2017-08-24T04:31:17.952Z,100708.04
2017-08-24T04:33:44.303Z,100716.88
2017-08-24T04:36:10.660Z,100718.36
2017-08-24T04:38:37.040Z,100722.02
2017-08-24T04:41:03.488Z,100721.63
2017-08-24T04:43:29.860Z,100724.40
2017-08-24T04:45:56.266Z,100729.11
2017-08-24T04:48:22.655Z,100732.35
2017-08-24T04:50:49.051Z,100735.34
2017-08-24T04:53:15.518Z,100743.52
2017-08-24T04:55:41.913Z,100740.26
2017-08-24T04:58:08.313Z,100746.28
2017-08-24T05:00:34.696Z,100743.93
2017-08-24T05:03:01.073Z,100740.79
2017-08-24T05:05:27.446Z,100752.73
2017-08-24T05:07:53.807Z,100761.23
2017-08-24T05:10:20.205Z,100764.76
2017-08-24T05:12:46.603Z,100775.63
2017-08-24T05:15:12.999Z,100766.57
2017-08-24T05:17:39.402Z,100773.99
2017-08-24T05:20:05.806Z,100769.27
2017-08-24T05:22:32.200Z,100760.73
2017-08-24T05:24:58.602Z,100765.25
2017-08-24T05:27:24.996Z,100755.83
2017-08-24T05:29:51.399Z,100764.12
2017-08-24T05:32:17.799Z,100763.63
2017-08-24T05:34:44.200Z,100767.22
2017-08-24T05:37:10.596Z,100778.52
2017-08-24T05:39:36.956Z,100771.67
2017-08-24T05:42:03.398Z,100770.39
2017-08-24T05:44:29.785Z,100766.64
2017-08-24T05:46:56.184Z,100775.70
2017-08-24T05:49:22.575Z,100781.01
2017-08-24T05:51:48.994Z,100787.19
2017-08-24T05:54:15.440Z,100781.97
2017-08-24T05:56:41.868Z,100779.86
2017-08-24T05:59:08.275Z,100785.64
2017-08-24T06:01:34.649Z,100786.36
2017-08-24T06:04:01.046Z,100792.45
2017-08-24T06:06:27.445Z,100798.38
2017-08-24T06:08:53.826Z,100796.73
2017-08-24T06:11:20.187Z,100783.52
2017-08-24T06:13:46.587Z,100793.44
2017-08-24T06:16:12.970Z,100803.94
2017-08-24T06:18:39.352Z,100799.34
2017-08-24T06:21:05.761Z,100800.97
2017-08-24T06:23:32.149Z,100801.14
2017-08-24T06:25:58.507Z,100800.66
2017-08-24T06:28:24.898Z,100799.58
2017-08-24T06:30:51.319Z,100803.39
2017-08-24T06:33:17.704Z,100801.34
2017-08-24T06:35:44.349Z,100810.23
2017-08-24T06:38:10.733Z,100815.61
2017-08-24T06:40:37.120Z,100817.52
2017-08-24T06:43:03.557Z,100820.52
2017-08-24T06:45:29.954Z,100824.80
2017-08-24T06:47:56.355Z,100826.70
2017-08-24T06:50:22.694Z,100822.69
2017-08-24T06:52:49.065Z,100816.89
2017-08-24T06:55:15.454Z,100819.86
2017-08-24T06:57:41.829Z,100829.19
2017-08-24T07:00:08.187Z,100818.73
2017-08-24T07:02:34.612Z,100824.66
2017-08-24T07:05:01.005Z,100823.40
2017-08-24T07:07:27.385Z,100829.91
2017-08-24T07:09:53.761Z,100835.20
2017-08-24T07:12:20.459Z,100831.95
2017-08-24T07:14:46.831Z,100832.64
2017-08-24T07:17:13.261Z,100834.25
2017-08-24T07:19:39.644Z,100833.41
2017-08-24T07:22:06.054Z,100838.94
2017-08-24T07:24:32.484Z,100835.21
2017-08-24T07:26:58.869Z,100847.92
2017-08-24T07:29:25.289Z,100841.69
2017-08-24T07:31:51.735Z,100856.52
2017-08-24T07:34:18.173Z,100854.77
2017-08-24T07:36:44.600Z,100853.69
2017-08-24T07:39:10.990Z,100856.25
2017-08-24T07:41:37.429Z,100859.13
2017-08-24T07:44:03.845Z,100857.95
2017-08-24T07:46:30.276Z,100854.83
2017-08-24T07:48:56.675Z,100854.41
2017-08-24T07:51:23.106Z,100853.13
2017-08-24T07:53:49.536Z,100862.39
2017-08-24T07:56:15.991Z,100863.53
2017-08-24T07:58:42.392Z,100868.19
2017-08-24T08:01:08.842Z,100868.70
2017-08-24T08:03:35.266Z,100870.17
2017-08-24T08:06:01.679Z,100872.50
2017-08-24T08:08:28.082Z,100868.41
2017-08-24T08:10:54.494Z,100872.42
2017-08-24T08:13:20.846Z,100874.53
2017-08-24T08:15:48.165Z,100880.55
2017-08-24T08:18:14.617Z,100877.09
2017-08-24T08:20:41.107Z,100880.91
2017-08-24T08:23:07.545Z,100876.34
2017-08-24T08:25:34.153Z,100879.16
2017-08-24T08:28:00.605Z,100884.13
2017-08-24T08:30:27.105Z,100880.95
2017-08-24T08:32:53.646Z,100882.65
2017-08-24T08:35:20.063Z,100879.83
2017-08-24T08:37:46.420Z,100881.11
2017-08-24T08:40:12.762Z,100887.03
2017-08-24T08:42:39.138Z,100888.51
2017-08-24T08:45:05.491Z,100892.00
2017-08-24T08:47:31.858Z,100895.02
2017-08-24T08:49:58.213Z,100895.95
2017-08-24T08:52:24.569Z,100892.11
2017-08-24T08:54:50.920Z,100894.52
2017-08-24T08:57:17.320Z,100893.38
2017-08-24T08:59:43.663Z,100903.92
2017-08-24T09:02:10.035Z,100909.14
2017-08-24T09:04:36.403Z,100906.66
2017-08-24T09:07:02.773Z,100910.70
2017-08-24T09:09:29.531Z,100914.59
2017-08-24T09:11:55.874Z,100909.86
2017-08-24T09:14:22.638Z,100907.91
2017-08-24T09:16:49.009Z,100916.22
2017-08-24T09:19:15.382Z,100916.27
2017-08-24T09:21:41.729Z,100907.81
2017-08-24T09:24:08.123Z,100908.10
2017-08-24T09:26:34.555Z,100911.72
2017-08-24T09:29:00.967Z,100910.02
2017-08-24T09:31:27.343Z,100913.27
2017-08-24T09:33:53.716Z,100918.75
2017-08-24T09:36:20.095Z,100919.69
2017-08-24T09:38:46.440Z,100915.40
2017-08-24T09:41:12.785Z,100916.84
2017-08-24T09:43:39.130Z,100916.41
2017-08-24T09:46:05.488Z,100918.48
2017-08-24T09:48:31.899Z,100926.54
2017-08-24T09:50:58.291Z,100922.50
2017-08-24T09:53:24.651Z,100921.13
2017-08-24T09:55:51.013Z,100925.97
2017-08-24T09:58:17.342Z,100919.48
2017-08-24T10:00:43.719Z,100920.08
2017-08-24T10:03:10.086Z,100916.25
2017-08-24T10:05:42.461Z,100916.15
2017-08-24T10:08:08.877Z,100923.42
2017-08-24T10:10:35.334Z,100924.22
2017-08-24T10:13:01.732Z,100926.92
2017-08-24T10:15:28.118Z,100930.05
2017-08-24T10:17:54.542Z,100931.13
2017-08-24T10:20:20.900Z,100927.08
2017-08-24T10:22:47.245Z,100915.73
2017-08-24T10:25:13.635Z,100924.09
2017-08-24T10:27:40.006Z,100924.66
2017-08-24T10:30:06.370Z,100927.00
2017-08-24T10:32:32.734Z,100924.08
2017-08-24T10:34:59.093Z,100927.05
2017-08-24T10:37:25.463Z,100930.11
2017-08-24T10:39:51.804Z,100931.61
2017-08-24T10:42:18.203Z,100935.88
2017-08-24T10:44:44.545Z,100935.50
2017-08-24T10:47:10.916Z,100932.95
2017-08-24T10:49:37.287Z,100932.37
2017-08-24T10:52:03.637Z,100931.72
2017-08-24T10:54:30.001Z,100931.19
2017-08-24T10:56:56.358Z,100921.41
2017-08-24T10:59:22.746Z,100926.51
2017-08-24T11:01:49.108Z,100919.13
2017-08-24T11:04:15.491Z,100918.43
2017-08-24T11:06:41.886Z,100919.34
2017-08-24T11:09:08.253Z,100913.78
2017-08-24T11:11:34.617Z,100918.25
2017-08-24T11:14:00.995Z,100917.73
2017-08-24T11:16:27.351Z,100915.66
2017-08-24T11:18:53.743Z,100920.04
2017-08-24T11:21:20.129Z,100929.84
2017-08-24T11:23:46.497Z,100925.50
2017-08-24T11:26:12.870Z,100931.45
2017-08-24T11:28:39.232Z,100930.55
2017-08-24T11:31:05.572Z,100934.00
2017-08-24T11:33:31.937Z,100928.59
2017-08-24T11:35:58.315Z,100933.43
2017-08-24T11:38:24.719Z,100927.42
2017-08-24T11:40:51.046Z,100925.97
2017-08-24T11:43:17.418Z,100930.22
2017-08-24T11:45:43.794Z,100936.47
2017-08-24T11:48:10.188Z,100922.39
2017-08-24T11:50:36.564Z,100926.78
2017-08-24T11:53:02.930Z,100934.08
2017-08-24T11:55:29.258Z,100923.84
2017-08-24T11:57:55.595Z,100926.98
2017-08-24T12:00:22.009Z,100933.43
2017-08-24T12:02:48.386Z,100927.91
2017-08-24T12:05:14.763Z,100923.31
2017-08-24T12:07:41.112Z,100927.70
2017-08-24T12:10:07.486Z,100925.21
2017-08-24T12:12:33.834Z,100920.64
2017-08-24T12:15:00.178Z,100921.52
2017-08-24T12:17:26.557Z,100923.47
2017-08-24T12:19:52.914Z,100929.96
2017-08-24T12:22:19.294Z,100935.16
2017-08-24T12:24:45.650Z,100928.41
2017-08-24T12:27:12.019Z,100926.89
2017-08-24T12:29:38.380Z,100932.41
2017-08-24T12:32:04.731Z,100923.80
2017-08-24T12:34:31.077Z,100915.80
2017-08-24T12:36:57.413Z,100916.80
2017-08-24T12:39:23.768Z,100919.54
2017-08-24T12:41:50.116Z,100927.09
2017-08-24T12:44:16.445Z,100924.56
2017-08-24T12:46:42.808Z,100929.66
2017-08-24T12:49:09.175Z,100926.80
2017-08-24T12:51:35.543Z,100922.45
2017-08-24T12:54:01.908Z,100922.80
2017-08-24T12:56:28.300Z,100916.13
2017-08-24T12:58:54.633Z,100915.94
2017-08-24T13:01:20.981Z,100922.55
2017-08-24T13:03:47.345Z,100924.72
2017-08-24T13:06:13.693Z,100919.75
2017-08-24T13:08:40.111Z,100910.16
2017-08-24T13:11:06.497Z,100915.95
2017-08-24T13:13:32.866Z,100912.27
2017-08-24T13:15:59.224Z,100911.56
2017-08-24T13:18:25.615Z,100908.09
2017-08-24T13:20:52.310Z,100913.56
2017-08-24T13:23:18.740Z,100907.93
2017-08-24T13:25:45.375Z,100908.08
2017-08-24T13:28:11.836Z,100906.16
2017-08-24T13:30:38.275Z,100903.07
2017-08-24T13:33:04.899Z,100913.38
2017-08-24T13:35:31.290Z,100912.77
2017-08-24T13:37:57.651Z,100912.95
2017-08-24T13:40:24.049Z,100913.34
2017-08-24T13:42:50.400Z,100907.88
2017-08-24T13:45:16.804Z,100908.09
2017-08-24T13:47:43.154Z,100902.47
2017-08-24T13:50:09.592Z,100896.38
2017-08-24T13:52:35.936Z,100905.91
2017-08-24T13:55:02.336Z,100901.20
2017-08-24T13:57:28.732Z,100903.52
2017-08-24T13:59:55.133Z,100904.47
2017-08-24T14:02:21.504Z,100903.98
2017-08-24T14:04:47.876Z,100903.42
2017-08-24T14:07:14.264Z,100909.25
2017-08-24T14:09:40.615Z,100913.08
2017-08-24T14:12:06.999Z,100912.79
2017-08-24T14:14:33.451Z,100910.37
2017-08-24T14:16:59.830Z,100905.37
2017-08-24T14:19:26.213Z,100912.36
2017-08-24T14:21:52.643Z,100904.08
2017-08-24T14:24:19.052Z,100902.92
2017-08-24T14:26:45.481Z,100909.84
2017-08-24T14:29:11.867Z,100902.86
2017-08-24T14:31:38.257Z,100897.23
2017-08-24T14:34:04.676Z,100908.16
2017-08-24T14:36:31.055Z,100907.84
2017-08-24T14:38:57.426Z,100899.72
2017-08-24T14:41:23.807Z,100915.52
2017-08-24T14:43:50.192Z,100908.92
2017-08-24T14:46:16.571Z,100907.39
2017-08-24T14:48:42.940Z,100914.99
2017-08-24T14:51:09.338Z,100903.97
2017-08-24T14:53:35.720Z,100905.75
2017-08-24T14:56:02.153Z,100905.19
2017-08-24T14:58:29.136Z,100908.17
2017-08-24T15:00:55.479Z,100915.18
2017-08-24T15:03:21.887Z,100909.14
2017-08-24T15:05:48.258Z,100905.78
2017-08-24T15:08:14.622Z,100905.59
2017-08-24T15:10:40.986Z,100907.34
2017-08-24T15:13:07.376Z,100904.56
2017-08-24T15:15:33.789Z,100909.73
2017-08-24T15:18:00.276Z,100907.79
2017-08-24T15:20:26.717Z,100910.60
2017-08-24T15:22:53.087Z,100910.63
2017-08-24T15:25:19.540Z,100913.91
2017-08-24T15:27:45.979Z,100908.11
2017-08-24T15:30:12.379Z,100906.68
2017-08-24T15:32:38.735Z,100912.11
2017-08-24T15:35:05.103Z,100910.95
2017-08-24T15:37:31.569Z,100914.16
2017-08-24T15:39:57.927Z,100910.48
2017-08-24T15:42:24.339Z,100909.20
2017-08-24T15:44:54.717Z,100909.56
2017-08-24T15:47:21.125Z,100912.80
2017-08-24T15:49:47.559Z,100915.06
2017-08-24T15:52:14.434Z,100913.37
2017-08-24T15:54:40.897Z,100916.51
2017-08-24T15:57:07.383Z,100915.03
2017-08-24T15:59:33.893Z,100923.84
2017-08-24T16:02:00.311Z,100930.30
2017-08-24T16:04:26.727Z,100922.72
2017-08-24T16:06:53.156Z,100924.34
2017-08-24T16:09:19.566Z,100926.62
2017-08-24T16:11:45.974Z,100922.14
2017-08-24T16:14:12.432Z,100915.37
2017-08-24T16:16:38.834Z,100916.90
2017-08-24T16:19:05.281Z,100922.98
2017-08-24T16:21:33.660Z,100922.48
2017-08-24T16:24:00.240Z,100912.73
2017-08-24T16:26:26.676Z,100914.69
2017-08-24T16:28:53.100Z,100920.41
2017-08-24T16:31:19.531Z,100916.73
2017-08-24T16:33:45.962Z,100910.55
2017-08-24T16:36:12.432Z,100919.05
2017-08-24T16:38:38.865Z,100924.56
2017-08-24T16:41:05.727Z,100917.73
2017-08-24T16:43:32.248Z,100917.53
2017-08-24T16:45:58.735Z,100918.87
2017-08-24T16:48:25.216Z,100909.05
2017-08-24T16:50:51.661Z,100913.61
2017-08-24T16:53:18.164Z,100914.98
2017-08-24T16:55:44.624Z,100913.43
2017-08-24T16:58:11.230Z,100915.14
2017-08-24T17:00:38.427Z,100914.53
2017-08-24T17:03:05.110Z,100915.78
2017-08-24T17:05:31.520Z,100912.48
2017-08-24T17:07:57.943Z,100913.25
2017-08-24T17:10:24.365Z,100915.61
2017-08-24T17:12:50.747Z,100917.22
2017-08-24T17:15:17.227Z,100911.73
2017-08-24T17:17:43.602Z,100915.95
2017-08-24T17:20:10.019Z,100911.91
2017-08-24T17:22:36.428Z,100912.39
2017-08-24T17:25:02.872Z,100919.25
2017-08-24T17:27:29.332Z,100926.68
2017-08-24T17:29:55.802Z,100922.06
2017-08-24T17:32:22.264Z,100920.88
2017-08-24T17:34:48.753Z,100919.41
2017-08-24T17:37:15.151Z,100930.12
2017-08-24T17:39:41.656Z,100924.17
2017-08-24T17:42:08.109Z,100925.94
2017-08-24T17:44:35.192Z,100932.48
2017-08-24T17:47:06.767Z,100929.78
2017-08-24T17:49:34.140Z,100925.02
2017-08-24T17:52:01.102Z,100929.05
2017-08-24T17:54:27.538Z,100928.27
2017-08-24T17:56:54.027Z,100928.77
2017-08-24T17:59:20.407Z,100931.23
2017-08-24T18:01:46.801Z,100928.92
2017-08-24T18:04:13.269Z,100937.39
2017-08-24T18:06:39.667Z,100930.81
2017-08-24T18:09:06.142Z,100929.30
2017-08-24T18:11:32.551Z,100929.08
2017-08-24T18:13:59.000Z,100934.75
2017-08-24T18:16:25.465Z,100936.40
2017-08-24T18:18:51.913Z,100943.91
2017-08-24T18:21:18.367Z,100945.52
2017-08-24T18:23:44.873Z,100955.09
2017-08-24T18:26:11.293Z,100957.52
2017-08-24T18:28:37.789Z,100955.64
2017-08-24T18:31:04.210Z,100952.84
2017-08-24T18:33:30.704Z,100955.50
2017-08-24T18:35:57.100Z,100951.45
2017-08-24T18:38:23.568Z,100950.30
2017-08-24T18:40:50.037Z,100952.25
2017-08-24T18:43:16.549Z,100955.37
2017-08-24T18:45:43.017Z,100960.08
2017-08-24T18:48:09.560Z,100956.78
2017-08-24T18:50:36.061Z,100950.99
2017-08-24T18:53:02.607Z,100956.88
2017-08-24T18:55:29.032Z,100961.59
2017-08-24T18:57:55.474Z,100958.94
2017-08-24T19:00:21.943Z,100959.84
2017-08-24T19:02:48.315Z,100966.55
2017-08-24T19:05:14.984Z,100968.87
2017-08-24T19:07:41.391Z,100968.29
2017-08-24T19:10:07.796Z,100965.91
2017-08-24T19:12:34.166Z,100973.63
2017-08-24T19:15:00.595Z,100973.59
2017-08-24T19:17:27.020Z,100977.99
2017-08-24T19:19:53.453Z,100976.17
2017-08-24T19:22:19.871Z,100975.88
2017-08-24T19:24:46.311Z,100976.32
2017-08-24T19:27:12.776Z,100974.39
2017-08-24T19:29:39.242Z,100971.49
2017-08-24T19:32:05.750Z,100976.28
2017-08-24T19:34:32.197Z,100977.69
2017-08-24T19:36:58.615Z,100980.16
2017-08-24T19:39:25.167Z,100989.87
2017-08-24T19:41:51.801Z,100990.84
2017-08-24T19:44:18.214Z,100986.09
2017-08-24T19:46:44.673Z,100986.97
2017-08-24T19:49:11.555Z,100986.36
2017-08-24T19:51:38.031Z,100987.81
2017-08-24T19:54:04.569Z,100989.16
2017-08-24T19:56:31.013Z,100987.88
2017-08-24T19:58:57.518Z,100990.23
2017-08-24T20:01:24.389Z,100986.30
2017-08-24T20:03:50.883Z,100986.15
2017-08-24T20:06:17.423Z,100989.72
2017-08-24T20:08:43.872Z,100988.80
2017-08-24T20:11:10.393Z,100995.84
2017-08-24T20:13:36.828Z,100993.25
2017-08-24T20:16:03.243Z,100994.81
2017-08-24T20:18:29.719Z,101001.81
2017-08-24T20:20:56.159Z,100999.39
2017-08-24T20:23:22.705Z,100997.28
2017-08-24T20:25:49.203Z,101007.78
2017-08-24T20:28:15.681Z,101017.89
2017-08-24T20:30:42.226Z,101019.02
2017-08-24T20:33:08.719Z,101020.91
2017-08-24T20:35:35.903Z,101019.66
2017-08-24T20:38:02.396Z,101022.44
2017-08-24T20:40:36.017Z,101029.63
2017-08-24T20:43:13.616Z,101031.33
2017-08-24T20:45:40.021Z,101037.73
2017-08-24T20:48:06.431Z,101037.72
2017-08-24T20:50:32.905Z,101035.34
2017-08-24T20:52:59.300Z,101040.63
2017-08-24T20:55:25.728Z,101043.23
2017-08-24T20:57:52.221Z,101042.32
2017-08-24T21:00:18.715Z,101049.63
2017-08-24T21:02:45.168Z,101056.92
2017-08-24T21:05:11.624Z,101054.85
2017-08-24T21:07:38.047Z,101055.84
2017-08-24T21:10:04.559Z,101052.87
2017-08-24T21:12:30.991Z,101051.51
2017-08-24T21:14:57.407Z,101050.02
2017-08-24T21:17:23.851Z,101055.04
2017-08-24T21:19:50.273Z,101051.00
2017-08-24T21:22:21.549Z,101054.70
2017-08-24T21:24:48.153Z,101054.22
2017-08-24T21:27:14.577Z,101053.06
2017-08-24T21:29:41.000Z,101055.20
2017-08-24T21:32:07.473Z,101058.60
2017-08-24T21:34:33.870Z,101056.03
2017-08-24T21:37:00.283Z,101052.52
2017-08-24T21:39:26.688Z,101051.52
2017-08-24T21:41:53.296Z,101054.55
2017-08-24T21:44:20.001Z,101052.84
2017-08-24T21:46:46.450Z,101052.62
2017-08-24T21:49:12.890Z,101048.89
2017-08-24T21:51:39.331Z,101055.74
2017-08-24T21:54:05.772Z,101055.46
2017-08-24T21:56:32.220Z,101056.77
2017-08-24T21:58:58.597Z,101064.78
2017-08-24T22:01:26.036Z,101060.31
2017-08-24T22:03:52.489Z,101058.48
2017-08-24T22:06:18.915Z,101052.80
2017-08-24T22:08:45.770Z,101063.27
2017-08-24T22:11:12.195Z,101063.59
2017-08-24T22:13:38.640Z,101065.57
2017-08-24T22:16:05.084Z,101064.94
2017-08-24T22:18:31.927Z,101062.12
2017-08-24T22:20:59.318Z,101058.53
2017-08-24T22:23:25.855Z,101049.45
2017-08-24T22:25:56.370Z,101057.75
2017-08-24T22:28:22.844Z,101047.77
2017-08-24T22:30:49.261Z,101045.28
2017-08-24T22:33:15.666Z,101051.23
2017-08-24T22:35:42.104Z,101052.44
2017-08-24T22:38:08.584Z,101048.20
2017-08-24T22:40:35.036Z,101048.05
2017-08-24T22:43:01.449Z,101048.27
2017-08-24T22:45:27.876Z,101051.13
2017-08-24T22:47:54.308Z,101055.47
2017-08-24T22:50:20.887Z,101051.39
2017-08-24T22:52:47.352Z,101060.30
2017-08-24T22:55:19.630Z,101059.48
2017-08-24T22:57:52.117Z,101066.44
2017-08-24T23:00:24.397Z,101063.80
2017-08-24T23:02:56.664Z,101066.92
2017-08-24T23:05:23.103Z,101060.39
2017-08-24T23:07:49.552Z,101065.05
2017-08-24T23:10:16.011Z,101066.00
2017-08-24T23:12:42.436Z,101067.98
2017-08-24T23:15:08.839Z,101069.70
2017-08-24T23:17:35.351Z,101070.73
2017-08-24T23:20:01.763Z,101062.22
2017-08-24T23:22:28.154Z,101060.11
2017-08-24T23:24:54.745Z,101054.78
2017-08-24T23:27:21.236Z,101070.37
2017-08-24T23:29:48.619Z,101069.16
2017-08-24T23:32:15.120Z,101067.77
2017-08-24T23:34:41.624Z,101073.31
2017-08-24T23:37:08.072Z,101071.36
2017-08-24T23:39:34.741Z,101068.69
2017-08-24T23:42:01.156Z,101067.66
2017-08-24T23:44:27.701Z,101063.68
2017-08-24T23:46:54.306Z,101064.27
2017-08-24T23:49:21.615Z,101071.00
2017-08-24T23:51:48.071Z,101067.20
2017-08-24T23:54:14.554Z,101059.59
2017-08-24T23:56:41.857Z,101069.27
2017-08-24T23:59:08.521Z,101072.57
